RYR6RR EGSS-LEAM
Flight info
| Callsign | RYR6RR |
|---|---|
| Flight time | N/A |
| Altitude | 37000 |
| Route | NUGBO M183 SILVA Q41 SAM N63 LELNA DCT NOVAN DCT NENEM P152 PPN N10 CJN L27 BLN N865 ESILA |
| Aircraft | B738/M-SDE2E3FGHIRWXY/LB1 |
Departure
| Time | N/A |
|---|---|
| Airport | London Stansted Airport (EGSS) |
Arrival
| Time | 2026-04-19 00:03 |
|---|---|
| Airport | Almería Airport (LEAM) |
| Time | Latitude | Longitude | Altitude | Speed | Heading |
|---|---|---|---|---|---|
| 2026-04-18 22:32 | 46.17478 | -1.49054 | 37243 ft | 432 kts | 189° |
| 2026-04-18 22:32 | 46.14472 | -1.49250 | 37221 ft | 432 kts | 189° |
| 2026-04-18 22:33 | 46.08463 | -1.49641 | 37241 ft | 432 kts | 189° |
| 2026-04-18 22:33 | 46.02455 | -1.50032 | 37243 ft | 432 kts | 189° |
| 2026-04-18 22:34 | 45.96484 | -1.50419 | 37239 ft | 433 kts | 189° |
| 2026-04-18 22:34 | 45.90469 | -1.50808 | 37232 ft | 433 kts | 189° |
| 2026-04-18 22:35 | 45.84453 | -1.51196 | 37236 ft | 433 kts | 189° |
| 2026-04-18 22:35 | 45.78429 | -1.51584 | 37233 ft | 433 kts | 189° |
| 2026-04-18 22:36 | 45.72402 | -1.51972 | 37228 ft | 434 kts | 189° |
| 2026-04-18 22:36 | 45.66373 | -1.52358 | 37229 ft | 434 kts | 189° |
| 2026-04-18 22:37 | 45.60342 | -1.52743 | 37225 ft | 434 kts | 189° |
| 2026-04-18 22:37 | 45.54309 | -1.53128 | 37213 ft | 434 kts | 189° |
| 2026-04-18 22:38 | 45.48277 | -1.53512 | 37219 ft | 434 kts | 189° |
| 2026-04-18 22:38 | 45.42252 | -1.53895 | 37221 ft | 433 kts | 189° |
| 2026-04-18 22:39 | 45.36228 | -1.54277 | 37206 ft | 433 kts | 189° |
| 2026-04-18 22:39 | 45.30214 | -1.54657 | 37220 ft | 432 kts | 189° |
| 2026-04-18 22:40 | 45.24208 | -1.55036 | 37218 ft | 432 kts | 189° |
| 2026-04-18 22:40 | 45.18204 | -1.55415 | 37216 ft | 431 kts | 189° |
| 2026-04-18 22:41 | 45.12215 | -1.55791 | 37210 ft | 431 kts | 189° |
| 2026-04-18 22:41 | 45.06231 | -1.56167 | 37221 ft | 430 kts | 189° |
| 2026-04-18 22:42 | 45.00259 | -1.56541 | 37214 ft | 429 kts | 189° |
| 2026-04-18 22:42 | 44.94289 | -1.56914 | 37210 ft | 429 kts | 189° |
| 2026-04-18 22:43 | 44.88322 | -1.57287 | 37218 ft | 429 kts | 189° |
| 2026-04-18 22:43 | 44.82347 | -1.57659 | 37218 ft | 430 kts | 189° |
| 2026-04-18 22:44 | 44.76367 | -1.58031 | 37219 ft | 431 kts | 189° |
| 2026-04-18 22:44 | 44.70415 | -1.58400 | 37217 ft | 431 kts | 189° |
| 2026-04-18 22:45 | 44.64416 | -1.58771 | 37219 ft | 432 kts | 189° |
| 2026-04-18 22:45 | 44.58410 | -1.59142 | 37201 ft | 432 kts | 189° |
| 2026-04-18 22:46 | 44.52402 | -1.59511 | 37217 ft | 432 kts | 189° |
| 2026-04-18 22:46 | 44.46383 | -1.59881 | 37217 ft | 433 kts | 189° |
| 2026-04-18 22:47 | 44.40366 | -1.60250 | 37191 ft | 433 kts | 189° |
| 2026-04-18 22:47 | 44.34348 | -1.60618 | 37214 ft | 433 kts | 189° |
| 2026-04-18 22:48 | 44.28328 | -1.60986 | 37222 ft | 433 kts | 189° |
| 2026-04-18 22:48 | 44.22307 | -1.61353 | 37220 ft | 433 kts | 189° |
| 2026-04-18 22:49 | 44.16291 | -1.61719 | 37222 ft | 433 kts | 188° |
| 2026-04-18 22:49 | 44.10275 | -1.62084 | 37229 ft | 433 kts | 188° |
| 2026-04-18 22:50 | 44.04261 | -1.62449 | 37228 ft | 433 kts | 188° |
| 2026-04-18 22:50 | 43.98246 | -1.62812 | 37223 ft | 432 kts | 188° |
| 2026-04-18 22:51 | 43.92238 | -1.63175 | 37226 ft | 432 kts | 188° |
| 2026-04-18 22:51 | 43.86235 | -1.63536 | 37229 ft | 432 kts | 188° |
| 2026-04-18 22:52 | 43.80232 | -1.63897 | 37212 ft | 432 kts | 188° |
| 2026-04-18 22:52 | 43.74274 | -1.64254 | 37226 ft | 431 kts | 188° |
| 2026-04-18 22:53 | 43.68275 | -1.64613 | 37232 ft | 431 kts | 188° |
| 2026-04-18 22:53 | 43.62278 | -1.64972 | 37232 ft | 431 kts | 188° |
| 2026-04-18 22:54 | 43.56280 | -1.65330 | 37233 ft | 431 kts | 188° |
| 2026-04-18 22:54 | 43.50283 | -1.65686 | 37242 ft | 431 kts | 188° |
| 2026-04-18 22:55 | 43.44283 | -1.66043 | 37240 ft | 432 kts | 188° |
| 2026-04-18 22:55 | 43.38304 | -1.66561 | 37241 ft | 429 kts | 192° |
| 2026-04-18 22:56 | 43.32404 | -1.67667 | 37241 ft | 428 kts | 194° |
| 2026-04-18 22:56 | 43.26513 | -1.68870 | 37240 ft | 428 kts | 193° |
| 2026-04-18 22:57 | 43.20608 | -1.70021 | 37221 ft | 429 kts | 193° |
| 2026-04-18 22:57 | 43.14686 | -1.71132 | 37229 ft | 429 kts | 193° |
| 2026-04-18 22:58 | 43.08762 | -1.72225 | 37223 ft | 429 kts | 193° |
| 2026-04-18 22:58 | 43.02844 | -1.73312 | 37226 ft | 429 kts | 193° |
| 2026-04-18 22:59 | 42.96965 | -1.74393 | 37217 ft | 429 kts | 193° |
| 2026-04-18 22:59 | 42.91039 | -1.75478 | 37224 ft | 430 kts | 192° |
| 2026-04-18 23:00 | 42.85104 | -1.76564 | 37209 ft | 431 kts | 193° |
| 2026-04-18 23:00 | 42.79163 | -1.77649 | 37215 ft | 431 kts | 193° |
| 2026-04-18 23:01 | 42.73214 | -1.78734 | 37204 ft | 431 kts | 192° |
| 2026-04-18 23:01 | 42.67268 | -1.79814 | 37206 ft | 431 kts | 192° |
| 2026-04-18 23:02 | 42.61318 | -1.80896 | 37207 ft | 432 kts | 192° |
| 2026-04-18 23:02 | 42.55363 | -1.81975 | 37192 ft | 431 kts | 192° |
| 2026-04-18 23:03 | 42.49416 | -1.83050 | 37190 ft | 431 kts | 192° |
| 2026-04-18 23:03 | 42.43464 | -1.84125 | 37183 ft | 431 kts | 192° |
| 2026-04-18 23:04 | 42.37520 | -1.85195 | 37173 ft | 430 kts | 192° |
| 2026-04-18 23:04 | 42.31589 | -1.86262 | 37178 ft | 430 kts | 192° |
| 2026-04-18 23:05 | 42.25661 | -1.87326 | 37180 ft | 429 kts | 192° |
| 2026-04-18 23:05 | 42.19741 | -1.88387 | 37182 ft | 429 kts | 192° |
| 2026-04-18 23:06 | 42.13830 | -1.89444 | 37165 ft | 428 kts | 192° |
| 2026-04-18 23:06 | 42.07930 | -1.90497 | 37186 ft | 428 kts | 192° |
| 2026-04-18 23:07 | 42.02027 | -1.91549 | 37173 ft | 428 kts | 192° |
| 2026-04-18 23:07 | 41.96131 | -1.92597 | 37164 ft | 427 kts | 192° |
| 2026-04-18 23:08 | 41.90241 | -1.93643 | 37185 ft | 427 kts | 192° |
| 2026-04-18 23:08 | 41.84395 | -1.94678 | 37184 ft | 427 kts | 192° |
| 2026-04-18 23:09 | 41.78504 | -1.95721 | 37190 ft | 427 kts | 192° |
| 2026-04-18 23:09 | 41.72606 | -1.96762 | 37178 ft | 428 kts | 192° |
| 2026-04-18 23:10 | 41.66704 | -1.97802 | 37179 ft | 428 kts | 192° |
| 2026-04-18 23:10 | 41.60797 | -1.98840 | 37186 ft | 428 kts | 192° |
| 2026-04-18 23:11 | 41.54891 | -1.99877 | 37184 ft | 428 kts | 192° |
| 2026-04-18 23:11 | 41.48978 | -2.00913 | 37179 ft | 428 kts | 192° |
| 2026-04-18 23:12 | 41.43068 | -2.01947 | 37182 ft | 429 kts | 192° |
| 2026-04-18 23:12 | 41.37149 | -2.02980 | 37180 ft | 429 kts | 192° |
| 2026-04-18 23:13 | 41.31236 | -2.04010 | 37161 ft | 429 kts | 191° |
| 2026-04-18 23:13 | 41.25321 | -2.05039 | 37178 ft | 429 kts | 191° |
| 2026-04-18 23:14 | 41.19402 | -2.06066 | 37177 ft | 429 kts | 191° |
| 2026-04-18 23:14 | 41.13486 | -2.07091 | 37190 ft | 429 kts | 191° |
| 2026-04-18 23:15 | 41.07562 | -2.08116 | 37177 ft | 429 kts | 191° |
| 2026-04-18 23:15 | 41.01641 | -2.09138 | 37194 ft | 429 kts | 191° |
| 2026-04-18 23:16 | 40.96720 | -2.09987 | 37208 ft | 429 kts | 191° |
| 2026-04-18 23:16 | 40.90789 | -2.11008 | 37197 ft | 430 kts | 191° |
| 2026-04-18 23:17 | 40.84858 | -2.12026 | 37204 ft | 430 kts | 191° |
| 2026-04-18 23:17 | 40.78926 | -2.13040 | 37213 ft | 429 kts | 191° |
| 2026-04-18 23:18 | 40.72999 | -2.14055 | 37203 ft | 430 kts | 191° |
| 2026-04-18 23:18 | 40.67065 | -2.15071 | 37201 ft | 430 kts | 191° |
| 2026-04-18 23:19 | 40.61132 | -2.16084 | 37202 ft | 430 kts | 191° |
| 2026-04-18 23:19 | 40.55201 | -2.17093 | 37208 ft | 430 kts | 191° |
| 2026-04-18 23:20 | 40.49268 | -2.18102 | 37215 ft | 430 kts | 191° |
| 2026-04-18 23:20 | 40.43337 | -2.19108 | 37198 ft | 430 kts | 191° |
| 2026-04-18 23:21 | 40.37410 | -2.20112 | 37205 ft | 430 kts | 191° |
| 2026-04-18 23:21 | 40.31482 | -2.21114 | 37202 ft | 429 kts | 191° |
| 2026-04-18 23:22 | 40.25554 | -2.22114 | 37198 ft | 429 kts | 191° |
| 2026-04-18 23:23 | 40.16679 | -2.23608 | 37195 ft | 428 kts | 191° |
| 2026-04-18 23:23 | 40.10768 | -2.24601 | 37195 ft | 428 kts | 191° |
| 2026-04-18 23:24 | 40.04863 | -2.25591 | 37194 ft | 427 kts | 191° |
| 2026-04-18 23:24 | 39.98968 | -2.26578 | 37181 ft | 427 kts | 191° |
| 2026-04-18 23:25 | 39.93086 | -2.27561 | 37191 ft | 426 kts | 191° |
| 2026-04-18 23:25 | 39.87213 | -2.28540 | 37190 ft | 425 kts | 191° |
| 2026-04-18 23:26 | 39.81347 | -2.29517 | 37181 ft | 425 kts | 191° |
| 2026-04-18 23:26 | 39.75480 | -2.30493 | 37166 ft | 425 kts | 191° |
| 2026-04-18 23:27 | 39.69618 | -2.31466 | 37171 ft | 424 kts | 191° |
| 2026-04-18 23:27 | 39.63760 | -2.32437 | 37176 ft | 424 kts | 191° |
| 2026-04-18 23:28 | 39.57940 | -2.33400 | 37172 ft | 425 kts | 191° |
| 2026-04-18 23:28 | 39.52074 | -2.34368 | 37168 ft | 425 kts | 191° |
| 2026-04-18 23:29 | 39.46205 | -2.35336 | 37169 ft | 425 kts | 191° |
| 2026-04-18 23:29 | 39.40332 | -2.36302 | 37181 ft | 426 kts | 191° |
| 2026-04-18 23:30 | 39.34454 | -2.37268 | 37168 ft | 426 kts | 191° |
| 2026-04-18 23:30 | 39.28567 | -2.38233 | 37162 ft | 426 kts | 191° |
| 2026-04-18 23:31 | 39.22686 | -2.39196 | 37173 ft | 426 kts | 191° |
| 2026-04-18 23:31 | 39.16796 | -2.40159 | 37165 ft | 427 kts | 191° |
| 2026-04-18 23:32 | 39.10904 | -2.41121 | 37160 ft | 427 kts | 191° |
| 2026-04-18 23:32 | 39.05005 | -2.42081 | 37168 ft | 427 kts | 191° |
| 2026-04-18 23:33 | 38.99108 | -2.43040 | 37172 ft | 427 kts | 191° |
| 2026-04-18 23:33 | 38.93209 | -2.43998 | 37168 ft | 428 kts | 191° |
| 2026-04-18 23:34 | 38.87306 | -2.44955 | 37170 ft | 427 kts | 191° |
| 2026-04-18 23:34 | 38.81399 | -2.45911 | 36813 ft | 427 kts | 191° |
| 2026-04-18 23:34 | 38.78512 | -2.46376 | 36480 ft | 421 kts | 190° |
| 2026-04-18 23:35 | 38.75618 | -2.46841 | 36126 ft | 416 kts | 190° |
| 2026-04-18 23:35 | 38.72758 | -2.47302 | 35734 ft | 413 kts | 190° |
| 2026-04-18 23:35 | 38.69915 | -2.47760 | 35363 ft | 410 kts | 190° |
| 2026-04-18 23:35 | 38.67089 | -2.48216 | 34981 ft | 408 kts | 189° |
| 2026-04-18 23:36 | 38.64284 | -2.48668 | 34607 ft | 405 kts | 189° |
| 2026-04-18 23:36 | 38.61493 | -2.49117 | 34228 ft | 403 kts | 189° |
| 2026-04-18 23:36 | 38.58714 | -2.49564 | 33810 ft | 401 kts | 189° |
| 2026-04-18 23:36 | 38.55950 | -2.50008 | 33405 ft | 399 kts | 189° |
| 2026-04-18 23:37 | 38.53206 | -2.50448 | 33023 ft | 397 kts | 189° |
| 2026-04-18 23:37 | 38.50473 | -2.50886 | 32645 ft | 394 kts | 189° |
| 2026-04-18 23:37 | 38.47765 | -2.51320 | 32279 ft | 391 kts | 189° |
| 2026-04-18 23:37 | 38.45075 | -2.51751 | 31917 ft | 388 kts | 189° |
| 2026-04-18 23:38 | 38.42404 | -2.52179 | 31570 ft | 386 kts | 189° |
| 2026-04-18 23:38 | 38.39747 | -2.52603 | 31214 ft | 384 kts | 189° |
| 2026-04-18 23:38 | 38.37100 | -2.53026 | 30859 ft | 382 kts | 188° |
| 2026-04-18 23:38 | 38.34466 | -2.53447 | 30513 ft | 381 kts | 188° |
| 2026-04-18 23:39 | 38.31844 | -2.53865 | 30141 ft | 379 kts | 188° |
| 2026-04-18 23:39 | 38.29237 | -2.54281 | 29731 ft | 377 kts | 188° |
| 2026-04-18 23:39 | 38.26645 | -2.54693 | 29340 ft | 374 kts | 188° |
| 2026-04-18 23:39 | 38.24073 | -2.55102 | 28990 ft | 371 kts | 188° |
| 2026-04-18 23:40 | 38.21523 | -2.55508 | 28609 ft | 369 kts | 189° |
| 2026-04-18 23:40 | 38.18989 | -2.55910 | 28242 ft | 366 kts | 189° |
| 2026-04-18 23:40 | 38.16470 | -2.56310 | 27879 ft | 364 kts | 189° |
| 2026-04-18 23:40 | 38.13969 | -2.56707 | 27524 ft | 361 kts | 189° |
| 2026-04-18 23:41 | 38.11484 | -2.57101 | 27170 ft | 358 kts | 189° |
| 2026-04-18 23:41 | 38.09016 | -2.57492 | 26816 ft | 356 kts | 189° |
| 2026-04-18 23:41 | 38.06568 | -2.57880 | 26477 ft | 354 kts | 189° |
| 2026-04-18 23:41 | 38.04130 | -2.58266 | 26128 ft | 352 kts | 189° |
| 2026-04-18 23:42 | 38.01709 | -2.58649 | 25786 ft | 350 kts | 189° |
| 2026-04-18 23:42 | 37.99298 | -2.59031 | 25442 ft | 348 kts | 189° |
| 2026-04-18 23:42 | 37.96897 | -2.59410 | 25103 ft | 347 kts | 189° |
| 2026-04-18 23:42 | 37.94506 | -2.59788 | 24749 ft | 346 kts | 189° |
| 2026-04-18 23:43 | 37.92153 | -2.60159 | 24404 ft | 345 kts | 189° |
| 2026-04-18 23:43 | 37.89775 | -2.60534 | 24060 ft | 344 kts | 189° |
| 2026-04-18 23:43 | 37.87403 | -2.60907 | 23705 ft | 343 kts | 189° |
| 2026-04-18 23:43 | 37.85041 | -2.61279 | 23306 ft | 342 kts | 189° |
| 2026-04-18 23:44 | 37.82687 | -2.61650 | 22935 ft | 340 kts | 189° |
| 2026-04-18 23:44 | 37.80350 | -2.62017 | 22581 ft | 337 kts | 189° |
| 2026-04-18 23:44 | 37.78029 | -2.62382 | 22246 ft | 335 kts | 189° |
| 2026-04-18 23:44 | 37.75723 | -2.62744 | 21908 ft | 333 kts | 189° |
| 2026-04-18 23:45 | 37.73429 | -2.63104 | 21568 ft | 331 kts | 189° |
| 2026-04-18 23:45 | 37.71148 | -2.63462 | 21235 ft | 329 kts | 189° |
| 2026-04-18 23:45 | 37.68880 | -2.63817 | 20907 ft | 328 kts | 189° |
| 2026-04-18 23:45 | 37.66623 | -2.64171 | 20572 ft | 326 kts | 189° |
| 2026-04-18 23:46 | 37.64371 | -2.64524 | 20242 ft | 325 kts | 189° |
| 2026-04-18 23:46 | 37.62129 | -2.64875 | 19917 ft | 324 kts | 189° |
| 2026-04-18 23:46 | 37.59897 | -2.65224 | 19591 ft | 323 kts | 189° |
| 2026-04-18 23:46 | 37.57670 | -2.65572 | 19271 ft | 322 kts | 189° |
| 2026-04-18 23:47 | 37.55443 | -2.65920 | 18944 ft | 322 kts | 189° |
| 2026-04-18 23:47 | 37.53222 | -2.66266 | 18604 ft | 322 kts | 189° |
| 2026-04-18 23:47 | 37.51002 | -2.66613 | 18255 ft | 321 kts | 189° |
| 2026-04-18 23:47 | 37.48816 | -2.66954 | 17900 ft | 320 kts | 189° |
| 2026-04-18 23:48 | 37.46578 | -2.67303 | 17557 ft | 319 kts | 189° |
| 2026-04-18 23:48 | 37.44415 | -2.67639 | 17231 ft | 317 kts | 189° |
| 2026-04-18 23:48 | 37.42226 | -2.67980 | 16902 ft | 316 kts | 189° |
| 2026-04-18 23:48 | 37.40052 | -2.68318 | 16581 ft | 314 kts | 189° |
| 2026-04-18 23:49 | 37.37890 | -2.68654 | 16265 ft | 312 kts | 188° |
| 2026-04-18 23:49 | 37.35737 | -2.68989 | 15953 ft | 311 kts | 188° |
| 2026-04-18 23:49 | 37.33590 | -2.69322 | 15629 ft | 310 kts | 188° |
| 2026-04-18 23:49 | 37.31453 | -2.69654 | 15309 ft | 309 kts | 188° |
| 2026-04-18 23:50 | 37.29325 | -2.69984 | 14991 ft | 308 kts | 188° |
| 2026-04-18 23:50 | 37.27205 | -2.70313 | 14681 ft | 307 kts | 188° |
| 2026-04-18 23:50 | 37.25092 | -2.70640 | 14369 ft | 305 kts | 188° |
| 2026-04-18 23:50 | 37.22987 | -2.70965 | 14057 ft | 305 kts | 188° |
| 2026-04-18 23:51 | 37.20897 | -2.71289 | 13795 ft | 304 kts | 187° |
| 2026-04-18 23:51 | 37.18791 | -2.71618 | 13298 ft | 305 kts | 188° |
| 2026-04-18 23:51 | 37.16699 | -2.71941 | 13023 ft | 302 kts | 188° |
| 2026-04-18 23:51 | 37.14619 | -2.72261 | 12706 ft | 300 kts | 187° |
| 2026-04-18 23:52 | 37.12552 | -2.72580 | 12395 ft | 298 kts | 187° |
| 2026-04-18 23:52 | 37.10497 | -2.72897 | 12088 ft | 297 kts | 187° |
| 2026-04-18 23:52 | 37.08451 | -2.73213 | 11774 ft | 295 kts | 187° |
| 2026-04-18 23:52 | 37.06416 | -2.73526 | 11467 ft | 294 kts | 186° |
| 2026-04-18 23:53 | 37.04387 | -2.73839 | 11168 ft | 293 kts | 186° |
| 2026-04-18 23:53 | 37.02365 | -2.74151 | 10859 ft | 293 kts | 186° |
| 2026-04-18 23:53 | 37.00349 | -2.74461 | 10535 ft | 292 kts | 186° |
| 2026-04-18 23:53 | 36.98341 | -2.74770 | 10313 ft | 288 kts | 186° |
| 2026-04-18 23:54 | 36.96381 | -2.75071 | 10124 ft | 283 kts | 186° |
| 2026-04-18 23:54 | 36.94426 | -2.75371 | 9810 ft | 283 kts | 186° |
| 2026-04-18 23:54 | 36.92474 | -2.75671 | 9494 ft | 282 kts | 185° |
| 2026-04-18 23:54 | 36.90534 | -2.75968 | 9201 ft | 281 kts | 186° |
| 2026-04-18 23:55 | 36.88600 | -2.76266 | 8929 ft | 279 kts | 186° |
| 2026-04-18 23:55 | 36.86669 | -2.76450 | 8568 ft | 279 kts | 173° |
| 2026-04-18 23:55 | 36.84787 | -2.75832 | 8131 ft | 282 kts | 160° |
| 2026-04-18 23:55 | 36.82932 | -2.75079 | 7643 ft | 286 kts | 161° |
| 2026-04-18 23:56 | 36.81007 | -2.74326 | 7130 ft | 284 kts | 162° |
| 2026-04-18 23:56 | 36.79145 | -2.73548 | 6636 ft | 281 kts | 153° |
| 2026-04-18 23:56 | 36.77660 | -2.72043 | 6129 ft | 275 kts | 125° |
| 2026-04-18 23:56 | 36.76898 | -2.69913 | 5583 ft | 274 kts | 101° |
| 2026-04-18 23:57 | 36.76845 | -2.67601 | 5164 ft | 269 kts | 80° |
| 2026-04-18 23:57 | 36.77339 | -2.65375 | 4751 ft | 264 kts | 73° |
| 2026-04-18 23:57 | 36.77892 | -2.63222 | 4363 ft | 255 kts | 72° |
| 2026-04-18 23:57 | 36.78418 | -2.61157 | 3957 ft | 244 kts | 72° |
| 2026-04-18 23:58 | 36.78913 | -2.59210 | 3567 ft | 226 kts | 73° |
| 2026-04-18 23:58 | 36.79363 | -2.57411 | 3245 ft | 208 kts | 72° |
| 2026-04-18 23:58 | 36.79774 | -2.55758 | 2929 ft | 192 kts | 73° |
| 2026-04-18 23:58 | 36.80151 | -2.54234 | 2670 ft | 176 kts | 72° |
| 2026-04-18 23:59 | 36.80501 | -2.52820 | 2404 ft | 165 kts | 72° |
| 2026-04-18 23:59 | 36.80821 | -2.51526 | 2178 ft | 150 kts | 72° |
| 2026-04-18 23:59 | 36.81117 | -2.50325 | 1966 ft | 141 kts | 72° |
| 2026-04-18 23:59 | 36.81403 | -2.49166 | 1784 ft | 140 kts | 72° |
| 2026-04-19 00:00 | 36.81691 | -2.47996 | 1615 ft | 142 kts | 72° |
| 2026-04-19 00:00 | 36.81983 | -2.46814 | 1415 ft | 142 kts | 72° |
| 2026-04-19 00:00 | 36.82274 | -2.45637 | 1205 ft | 142 kts | 71° |
| 2026-04-19 00:00 | 36.82560 | -2.44463 | 987 ft | 140 kts | 73° |
| 2026-04-19 00:01 | 36.82839 | -2.43315 | 781 ft | 138 kts | 71° |
| 2026-04-19 00:01 | 36.83135 | -2.42152 | 610 ft | 143 kts | 71° |
| 2026-04-19 00:01 | 36.83431 | -2.40966 | 450 ft | 143 kts | 71° |
| 2026-04-19 00:01 | 36.83722 | -2.39776 | 267 ft | 144 kts | 73° |
| 2026-04-19 00:02 | 36.84009 | -2.38573 | 55 ft | 143 kts | 70° |
| 2026-04-19 00:02 | 36.84283 | -2.37473 | 38 ft | 115 kts | 73° |
| 2026-04-19 00:02 | 36.84460 | -2.36744 | 46 ft | 73 kts | 72° |
| 2026-04-19 00:02 | 36.84601 | -2.36178 | 52 ft | 64 kts | 73° |
| 2026-04-19 00:03 | 36.84723 | -2.35685 | 58 ft | 53 kts | 72° |
| 2026-04-19 00:03 | 36.84791 | -2.35410 | 60 ft | 15 kts | 72° |
| 2026-04-19 00:03 | 36.84861 | -2.35332 | 62 ft | 14 kts | 4° |
| 2026-04-19 00:03 | 36.84940 | -2.35390 | 61 ft | 14 kts | 303° |
| 2026-04-19 00:04 | 36.84940 | -2.35503 | 59 ft | 13 kts | 254° |
| 2026-04-19 00:04 | 36.84913 | -2.35612 | 60 ft | 13 kts | 252° |
| 2026-04-19 00:04 | 36.84882 | -2.35738 | 55 ft | 18 kts | 252° |
| 2026-04-19 00:04 | 36.84841 | -2.35904 | 55 ft | 23 kts | 252° |
| 2026-04-19 00:05 | 36.84792 | -2.36110 | 53 ft | 27 kts | 252° |
| 2026-04-19 00:05 | 36.84733 | -2.36347 | 53 ft | 29 kts | 253° |
| 2026-04-19 00:05 | 36.84676 | -2.36578 | 50 ft | 27 kts | 253° |
| 2026-04-19 00:05 | 36.84623 | -2.36794 | 47 ft | 25 kts | 253° |
| 2026-04-19 00:06 | 36.84631 | -2.36919 | 44 ft | 14 kts | 308° |
| 2026-04-19 00:06 | 36.84643 | -2.36991 | 45 ft | 13 kts | 239° |